LiveATC.Net - Listen to live air traffic control over the Internet!

ICAO: KLBB  IATA: LBB   Airport: Lubbock Preston Smith International Airport
City: Lubbock   State/Province: Texas
Country: United States   Continent: North America
KLBB METAR Weather: KLBB 272353Z COR 15006KT 10SM FEW250 BKN300 23/09 A3020 RMK AO2 SLP192 BKN LYR THN T02330089 10272 20233 55005
KLBB Flight Activity (FlightAware)
KLBB Airport Info   (AirNav) (iFlightPlanner)
KLBB VFR Sectional Chart   (iFlightPlanner) 
KLBB IFR Low Chart   (iFlightPlanner) 
KLBB Gnd/Twr/App
Feed Status: UP   Listeners: 0
Listen right in your browser - requires Flash (in browser, requires Flash)
Click here to listen with your own player (launches your MP3 player)
KLBB Gnd/Twr/App Audio Archives
Hub City Aviation123.500
Lubbock Approach/Departure119.200
Lubbock Ground121.900
Lubbock Tower120.500

Feed sponsored by: Hub City Aviation


Unauthorized use prohibited. See Terms of Service

Find LiveATC Audio Streams

Airport/ARTCC Code

(e.g., 124.400, 128.75)
Site-wide search

Browse LiveATC Feeds
LiveATC Coverage Map
Top 50 LiveATC Feeds
Bad Weather Areas

Offer a LiveATC Feed
Press Inquiries

LiveATC on iPhone
LiveATC on Android

Windows Phone
Windows 8/10

LiveATC Mobile
(Mobile browser)

ATC Audio Archives
Interesting Recordings

LiveATC Forums

Home Page
Make a Donation
LiveATC Store

Terms of Use
Privacy Policy

Canadian Air Freqs


FAA Airport Status
Nat'l Airspace Status
Arrival Demand Charts

Server Software By: